sensor_id;sensor_type;location;lat;lon;timestamp;pressure;altitude;pressure_sealevel;temperature;humidity
9774;BME280;4926;42.670;23.316;2023-04-01T00:00:47;93661.38;;;13.25;65.17
9774;BME280;4926;42.670;23.316;2023-04-01T00:03:17;93668.19;;;13.14;64.94
9774;BME280;4926;42.670;23.316;2023-04-01T00:05:44;93674.38;;;12.77;67.12
9774;BME280;4926;42.670;23.316;2023-04-01T00:08:11;93666.13;;;12.53;67.66
9774;BME280;4926;42.670;23.316;2023-04-01T00:10:38;93677.56;;;12.62;68.15
9774;BME280;4926;42.670;23.316;2023-04-01T00:13:07;93653.59;;;12.45;68.20
9774;BME280;4926;42.670;23.316;2023-04-01T00:15:34;93669.94;;;12.43;68.17
9774;BME280;4926;42.670;23.316;2023-04-01T00:18:01;93675.59;;;12.42;68.71
9774;BME280;4926;42.670;23.316;2023-04-01T00:20:28;93682.19;;;12.35;68.67
9774;BME280;4926;42.670;23.316;2023-04-01T00:22:58;93689.94;;;12.20;69.21
9774;BME280;4926;42.670;23.316;2023-04-01T00:25:25;93693.09;;;12.13;69.96
9774;BME280;4926;42.670;23.316;2023-04-01T00:27:52;93689.94;;;12.20;69.81
9774;BME280;4926;42.670;23.316;2023-04-01T00:30:20;93682.47;;;11.96;70.75
9774;BME280;4926;42.670;23.316;2023-04-01T00:32:51;93695.63;;;12.01;71.16
9774;BME280;4926;42.670;23.316;2023-04-01T00:35:17;93687.16;;;11.65;72.56
9774;BME280;4926;42.670;23.316;2023-04-01T00:37:44;93692.31;;;11.45;74.90
9774;BME280;4926;42.670;23.316;2023-04-01T00:40:25;93703.69;;;11.11;78.26
9774;BME280;4926;42.670;23.316;2023-04-01T00:42:55;93691.78;;;11.00;81.74
9774;BME280;4926;42.670;23.316;2023-04-01T00:45:32;93684.28;;;11.19;79.94
9774;BME280;4926;42.670;23.316;2023-04-01T00:48:04;93684.38;;;10.88;80.83
9774;BME280;4926;42.670;23.316;2023-04-01T00:50:33;93675.94;;;10.95;82.20
9774;BME280;4926;42.670;23.316;2023-04-01T00:53:02;93671.81;;;10.80;81.36
9774;BME280;4926;42.670;23.316;2023-04-01T00:55:32;93679.84;;;10.89;82.62
9774;BME280;4926;42.670;23.316;2023-04-01T00:58:02;93675.72;;;10.83;82.30
9774;BME280;4926;42.670;23.316;2023-04-01T01:00:33;93673.22;;;10.78;84.33
9774;BME280;4926;42.670;23.316;2023-04-01T01:03:00;93672.63;;;10.81;84.98
9774;BME280;4926;42.670;23.316;2023-04-01T01:05:38;93666.38;;;10.94;83.91
9774;BME280;4926;42.670;23.316;2023-04-01T01:08:16;93658.34;;;10.68;84.55
9774;BME280;4926;42.670;23.316;2023-04-01T01:10:49;93648.75;;;10.59;85.88
9774;BME280;4926;42.670;23.316;2023-04-01T01:13:24;93643.53;;;10.45;86.19
9774;BME280;4926;42.670;23.316;2023-04-01T01:15:58;93651.34;;;10.42;86.62
9774;BME280;4926;42.670;23.316;2023-04-01T01:18:32;93643.84;;;10.44;87.03
9774;BME280;4926;42.670;23.316;2023-04-01T01:21:30;93638.28;;;10.71;87.34
9774;BME280;4926;42.670;23.316;2023-04-01T01:24:23;93629.34;;;10.58;84.16
9774;BME280;4926;42.670;23.316;2023-04-01T01:26:59;93629.63;;;10.57;84.92
9774;BME280;4926;42.670;23.316;2023-04-01T01:30:04;93631.38;;;10.53;85.93
9774;BME280;4926;42.670;23.316;2023-04-01T01:33:11;93620.25;;;10.51;86.11
9774;BME280;4926;42.670;23.316;2023-04-01T01:35:44;93607.97;;;10.33;85.09
9774;BME280;4926;42.670;23.316;2023-04-01T01:38:18;93626.09;;;10.31;85.48
9774;BME280;4926;42.670;23.316;2023-04-01T01:40:48;93618.44;;;10.29;85.06
9774;BME280;4926;42.670;23.316;2023-04-01T01:43:21;93635.97;;;10.30;83.87
9774;BME280;4926;42.670;23.316;2023-04-01T01:45:52;93616.25;;;10.31;83.50
9774;BME280;4926;42.670;23.316;2023-04-01T01:48:20;93615.16;;;10.32;82.93
9774;BME280;4926;42.670;23.316;2023-04-01T01:50:52;93601.44;;;10.39;83.18
9774;BME280;4926;42.670;23.316;2023-04-01T01:53:19;93598.94;;;10.42;81.26
9774;BME280;4926;42.670;23.316;2023-04-01T01:55:47;93610.56;;;10.63;81.12
9774;BME280;4926;42.670;23.316;2023-04-01T01:58:17;93592.59;;;10.86;80.45
9774;BME280;4926;42.670;23.316;2023-04-01T02:00:50;93580.09;;;11.12;79.60
9774;BME280;4926;42.670;23.316;2023-04-01T02:03:23;93577.09;;;11.22;76.11
9774;BME280;4926;42.670;23.316;2023-04-01T02:05:56;93578.50;;;11.45;75.65
9774;BME280;4926;42.670;23.316;2023-04-01T02:08:34;93577.84;;;11.57;73.96
9774;BME280;4926;42.670;23.316;2023-04-01T02:11:04;93563.28;;;11.54;73.03
9774;BME280;4926;42.670;23.316;2023-04-01T02:13:35;93563.78;;;11.56;72.12
9774;BME280;4926;42.670;23.316;2023-04-01T02:16:11;93556.22;;;11.75;71.21
9774;BME280;4926;42.670;23.316;2023-04-01T02:18:39;93555.13;;;11.76;71.19
9774;BME280;4926;42.670;23.316;2023-04-01T02:21:11;93553.72;;;11.70;70.38
9774;BME280;4926;42.670;23.316;2023-04-01T02:23:40;93549.63;;;11.73;70.51
9774;BME280;4926;42.670;23.316;2023-04-01T02:26:07;93549.13;;;11.79;70.38
9774;BME280;4926;42.670;23.316;2023-04-01T02:28:38;93545.97;;;11.94;69.39
9774;BME280;4926;42.670;23.316;2023-04-01T02:31:07;93546.53;;;12.08;68.69
9774;BME280;4926;42.670;23.316;2023-04-01T02:33:35;93558.13;;;12.12;68.39
9774;BME280;4926;42.670;23.316;2023-04-01T02:36:03;93554.66;;;12.20;68.37
9774;BME280;4926;42.670;23.316;2023-04-01T02:38:32;93557.41;;;12.32;68.58
9774;BME280;4926;42.670;23.316;2023-04-01T02:41:02;93568.09;;;12.32;69.14
9774;BME280;4926;42.670;23.316;2023-04-01T02:43:30;93561.81;;;12.28;69.77
9774;BME280;4926;42.670;23.316;2023-04-01T02:45:59;93562.75;;;12.32;69.97
9774;BME280;4926;42.670;23.316;2023-04-01T02:48:27;93564.78;;;12.35;69.44
9774;BME280;4926;42.670;23.316;2023-04-01T02:50:53;93566.53;;;12.31;69.47
9774;BME280;4926;42.670;23.316;2023-04-01T02:53:21;93577.31;;;12.44;69.29
9774;BME280;4926;42.670;23.316;2023-04-01T02:55:52;93579.06;;;12.40;69.29
9774;BME280;4926;42.670;23.316;2023-04-01T02:58:19;93580.59;;;12.41;69.47
9774;BME280;4926;42.670;23.316;2023-04-01T03:00:45;93581.72;;;12.40;69.66
9774;BME280;4926;42.670;23.316;2023-04-01T03:03:13;93593.47;;;12.38;70.08
9774;BME280;4926;42.670;23.316;2023-04-01T03:05:41;93602.69;;;12.20;70.73
9774;BME280;4926;42.670;23.316;2023-04-01T03:08:07;93597.63;;;12.27;70.63
9774;BME280;4926;42.670;23.316;2023-04-01T03:10:34;93600.13;;;12.32;70.78
9774;BME280;4926;42.670;23.316;2023-04-01T03:13:02;93607.78;;;12.34;71.03
9774;BME280;4926;42.670;23.316;2023-04-01T03:15:29;93597.47;;;12.24;71.19
9774;BME280;4926;42.670;23.316;2023-04-01T03:17:56;93592.16;;;12.24;71.63
9774;BME280;4926;42.670;23.316;2023-04-01T03:20:23;93600.19;;;12.15;72.19
9774;BME280;4926;42.670;23.316;2023-04-01T03:22:51;93593.28;;;12.14;72.77
9774;BME280;4926;42.670;23.316;2023-04-01T03:25:18;93601.16;;;12.02;74.03
9774;BME280;4926;42.670;23.316;2023-04-01T03:27:45;93613.13;;;11.96;74.71
9774;BME280;4926;42.670;23.316;2023-04-01T03:30:13;93630.84;;;11.92;75.89
9774;BME280;4926;42.670;23.316;2023-04-01T03:32:40;93619.38;;;11.92;76.49
9774;BME280;4926;42.670;23.316;2023-04-01T03:35:10;93611.09;;;11.85;77.08
9774;BME280;4926;42.670;23.316;2023-04-01T03:37:39;93623.31;;;11.94;76.76
9774;BME280;4926;42.670;23.316;2023-04-01T03:40:07;93623.44;;;12.06;76.91
9774;BME280;4926;42.670;23.316;2023-04-01T03:42:41;93600.19;;;12.15;76.45
9774;BME280;4926;42.670;23.316;2023-04-01T03:45:09;93585.72;;;12.16;76.16
9774;BME280;4926;42.670;23.316;2023-04-01T03:47:38;93546.88;;;11.98;70.46
9774;BME280;4926;42.670;23.316;2023-04-01T03:50:08;93550.03;;;11.92;73.57
9774;BME280;4926;42.670;23.316;2023-04-01T03:52:35;93545.56;;;11.50;77.33
9774;BME280;4926;42.670;23.316;2023-04-01T03:55:02;93538.09;;;11.26;80.23
9774;BME280;4926;42.670;23.316;2023-04-01T03:57:30;93535.88;;;11.45;79.95
9774;BME280;4926;42.670;23.316;2023-04-01T03:59:57;93523.66;;;11.53;79.80
9774;BME280;4926;42.670;23.316;2023-04-01T04:02:27;93528.69;;;11.28;83.17
9774;BME280;4926;42.670;23.316;2023-04-01T04:04:55;93521.47;;;11.38;82.21
9774;BME280;4926;42.670;23.316;2023-04-01T04:07:25;93509.72;;;11.21;81.36
9774;BME280;4926;42.670;23.316;2023-04-01T04:09:51;93501.88;;;11.25;82.14
9774;BME280;4926;42.670;23.316;2023-04-01T04:12:18;93490.59;;;11.37;80.31
9774;BME280;4926;42.670;23.316;2023-04-01T04:14:45;93491.22;;;11.42;80.69
9774;BME280;4926;42.670;23.316;2023-04-01T04:17:11;93489.50;;;11.29;78.62
9774;BME280;4926;42.670;23.316;2023-04-01T04:19:43;93484.94;;;11.38;78.64
9774;BME280;4926;42.670;23.316;2023-04-01T04:22:14;93495.31;;;11.31;78.91
9774;BME280;4926;42.670;23.316;2023-04-01T04:24:44;93488.53;;;11.34;79.79
9774;BME280;4926;42.670;23.316;2023-04-01T04:27:11;93479.13;;;11.45;79.09
9774;BME280;4926;42.670;23.316;2023-04-01T04:29:40;93465.00;;;11.44;76.37
9774;BME280;4926;42.670;23.316;2023-04-01T04:32:07;93467.06;;;11.47;75.68
9774;BME280;4926;42.670;23.316;2023-04-01T04:34:34;93470.78;;;11.63;75.00
9774;BME280;4926;42.670;23.316;2023-04-01T04:37:03;93457.31;;;11.51;73.99
9774;BME280;4926;42.670;23.316;2023-04-01T04:39:31;93450.34;;;11.30;73.88
9774;BME280;4926;42.670;23.316;2023-04-01T04:41:58;93463.63;;;11.38;74.27
9774;BME280;4926;42.670;23.316;2023-04-01T04:44:25;93460.31;;;11.41;74.03
9774;BME280;4926;42.670;23.316;2023-04-01T04:46:52;93452.63;;;11.48;74.97
9774;BME280;4926;42.670;23.316;2023-04-01T04:49:21;93436.47;;;11.53;76.30
9774;BME280;4926;42.670;23.316;2023-04-01T04:51:48;93446.16;;;11.66;76.19
9774;BME280;4926;42.670;23.316;2023-04-01T04:54:15;93424.84;;;11.66;74.82
9774;BME280;4926;42.670;23.316;2023-04-01T04:56:44;93429.88;;;11.59;73.88
9774;BME280;4926;42.670;23.316;2023-04-01T04:59:11;93455.41;;;11.60;75.16
9774;BME280;4926;42.670;23.316;2023-04-01T05:01:38;93445.06;;;11.67;75.37
9774;BME280;4926;42.670;23.316;2023-04-01T05:04:05;93427.88;;;11.85;77.90
9774;BME280;4926;42.670;23.316;2023-04-01T05:06:37;93416.59;;;12.09;75.58
9774;BME280;4926;42.670;23.316;2023-04-01T05:09:03;93431.41;;;12.27;73.09
9774;BME280;4926;42.670;23.316;2023-04-01T05:11:32;93419.81;;;12.23;71.41
9774;BME280;4926;42.670;23.316;2023-04-01T05:14:03;93421.38;;;12.03;72.01
9774;BME280;4926;42.670;23.316;2023-04-01T05:16:32;93415.09;;;11.99;72.04
9774;BME280;4926;42.670;23.316;2023-04-01T05:18:59;93398.00;;;12.00;72.01
9774;BME280;4926;42.670;23.316;2023-04-01T05:21:25;93397.66;;;12.02;71.53
9774;BME280;4926;42.670;23.316;2023-04-01T05:23:52;93390.78;;;12.01;71.76
9774;BME280;4926;42.670;23.316;2023-04-01T05:26:19;93385.69;;;11.87;71.94
9774;BME280;4926;42.670;23.316;2023-04-01T05:28:45;93383.84;;;11.79;72.72
9774;BME280;4926;42.670;23.316;2023-04-01T05:31:15;93400.75;;;11.83;72.13
9774;BME280;4926;42.670;23.316;2023-04-01T05:33:41;93401.31;;;11.68;73.23
9774;BME280;4926;42.670;23.316;2023-04-01T05:36:09;93392.41;;;11.64;74.04
9774;BME280;4926;42.670;23.316;2023-04-01T05:38:37;93391.41;;;11.77;73.43
9774;BME280;4926;42.670;23.316;2023-04-01T05:41:04;93391.66;;;11.84;73.41
9774;BME280;4926;42.670;23.316;2023-04-01T05:43:31;93392.34;;;12.02;72.49
9774;BME280;4926;42.670;23.316;2023-04-01T05:45:57;93372.06;;;12.09;71.73
9774;BME280;4926;42.670;23.316;2023-04-01T05:48:25;93379.84;;;12.14;69.70
9774;BME280;4926;42.670;23.316;2023-04-01T05:50:52;93380.44;;;12.20;68.98
9774;BME280;4926;42.670;23.316;2023-04-01T05:53:19;93389.50;;;12.27;68.28
9774;BME280;4926;42.670;23.316;2023-04-01T05:55:47;93366.78;;;12.21;66.72
9774;BME280;4926;42.670;23.316;2023-04-01T05:58:14;93366.41;;;12.31;67.46
9774;BME280;4926;42.670;23.316;2023-04-01T06:00:40;93357.72;;;12.55;66.77
9774;BME280;4926;42.670;23.316;2023-04-01T06:03:07;93356.69;;;12.68;65.40
9774;BME280;4926;42.670;23.316;2023-04-01T06:05:41;93358.63;;;12.92;64.60
9774;BME280;4926;42.670;23.316;2023-04-01T06:08:11;93341.34;;;13.10;62.10
9774;BME280;4926;42.670;23.316;2023-04-01T06:10:48;93356.50;;;13.30;61.52
9774;BME280;4926;42.670;23.316;2023-04-01T06:13:23;93353.19;;;13.45;60.96
9774;BME280;4926;42.670;23.316;2023-04-01T06:15:55;93346.72;;;13.70;60.77
9774;BME280;4926;42.670;23.316;2023-04-01T06:18:50;93328.56;;;13.64;59.84
9774;BME280;4926;42.670;23.316;2023-04-01T06:24:19;93335.13;;;13.54;59.55
9774;BME280;4926;42.670;23.316;2023-04-01T06:26:53;93340.06;;;13.64;59.40
9774;BME280;4926;42.670;23.316;2023-04-01T06:29:44;93350.31;;;13.74;59.21
9774;BME280;4926;42.670;23.316;2023-04-01T06:32:26;93339.72;;;13.78;58.32
9774;BME280;4926;42.670;23.316;2023-04-01T06:35:15;93316.88;;;13.80;58.04
9774;BME280;4926;42.670;23.316;2023-04-01T06:38:05;93324.66;;;13.97;58.28
9774;BME280;4926;42.670;23.316;2023-04-01T06:40:52;93313.50;;;13.95;57.81
9774;BME280;4926;42.670;23.316;2023-04-01T06:43:25;93307.34;;;13.95;57.95
9774;BME280;4926;42.670;23.316;2023-04-01T06:46:04;93295.66;;;13.99;58.68
9774;BME280;4926;42.670;23.316;2023-04-01T06:48:43;93287.44;;;13.68;60.12
9774;BME280;4926;42.670;23.316;2023-04-01T06:51:20;93307.97;;;13.64;60.52
9774;BME280;4926;42.670;23.316;2023-04-01T06:53:54;93300.59;;;13.49;61.68
9774;BME280;4926;42.670;23.316;2023-04-01T06:56:25;93302.31;;;13.41;62.55
9774;BME280;4926;42.670;23.316;2023-04-01T06:58:54;93281.44;;;13.35;63.11
9774;BME280;4926;42.670;23.316;2023-04-01T07:01:26;93304.41;;;13.24;63.37
9774;BME280;4926;42.670;23.316;2023-04-01T07:03:57;93291.28;;;13.31;64.02
9774;BME280;4926;42.670;23.316;2023-04-01T07:06:27;93302.19;;;13.38;64.10
9774;BME280;4926;42.670;23.316;2023-04-01T07:09:00;93304.53;;;13.39;64.50
9774;BME280;4926;42.670;23.316;2023-04-01T07:11:31;93297.72;;;13.30;64.78
9774;BME280;4926;42.670;23.316;2023-04-01T07:14:01;93318.53;;;13.12;65.52
9774;BME280;4926;42.670;23.316;2023-04-01T07:16:31;93307.72;;;13.21;66.03
9774;BME280;4926;42.670;23.316;2023-04-01T07:19:04;93286.56;;;13.40;65.19
9774;BME280;4926;42.670;23.316;2023-04-01T07:21:35;93280.69;;;13.47;65.73
9774;BME280;4926;42.670;23.316;2023-04-01T07:24:09;93296.28;;;13.57;65.95
9774;BME280;4926;42.670;23.316;2023-04-01T07:26:41;93300.19;;;13.59;65.62
9774;BME280;4926;42.670;23.316;2023-04-01T07:29:09;93311.97;;;13.58;65.52
9774;BME280;4926;42.670;23.316;2023-04-01T07:31:48;93314.88;;;13.65;65.78
9774;BME280;4926;42.670;23.316;2023-04-01T07:34:23;93309.72;;;13.72;65.99
9774;BME280;4926;42.670;23.316;2023-04-01T07:36:55;93323.31;;;13.91;65.16
9774;BME280;4926;42.670;23.316;2023-04-01T07:39:37;93302.97;;;14.14;64.90
9774;BME280;4926;42.670;23.316;2023-04-01T07:42:16;93297.81;;;14.21;64.65
9774;BME280;4926;42.670;23.316;2023-04-01T07:44:54;93304.94;;;14.29;64.65
9774;BME280;4926;42.670;23.316;2023-04-01T07:47:38;93285.31;;;14.37;64.29
9774;BME280;4926;42.670;23.316;2023-04-01T07:50:20;93285.06;;;14.42;64.38
9774;BME280;4926;42.670;23.316;2023-04-01T07:52:54;93280.41;;;14.39;64.27
9774;BME280;4926;42.670;23.316;2023-04-01T07:55:31;93281.06;;;14.24;64.51
9774;BME280;4926;42.670;23.316;2023-04-01T07:58:04;93289.09;;;14.24;64.65
9774;BME280;4926;42.670;23.316;2023-04-01T08:00:41;93294.13;;;14.38;64.41
9774;BME280;4926;42.670;23.316;2023-04-01T08:06:13;93288.38;;;14.51;63.62
9774;BME280;4926;42.670;23.316;2023-04-01T08:08:56;93253.72;;;14.43;63.90
9774;BME280;4926;42.670;23.316;2023-04-01T08:11:39;93236.03;;;14.54;63.19
9774;BME280;4926;42.670;23.316;2023-04-01T08:14:13;93244.44;;;14.84;62.79
9774;BME280;4926;42.670;23.316;2023-04-01T08:16:51;93250.25;;;14.86;62.55
9774;BME280;4926;42.670;23.316;2023-04-01T08:19:34;93258.53;;;14.81;63.16
9774;BME280;4926;42.670;23.316;2023-04-01T08:22:09;93236.50;;;14.87;62.77
9774;BME280;4926;42.670;23.316;2023-04-01T08:24:41;93236.44;;;15.15;62.06
9774;BME280;4926;42.670;23.316;2023-04-01T08:27:16;93230.72;;;15.32;60.91
9774;BME280;4926;42.670;23.316;2023-04-01T08:29:51;93201.28;;;15.35;59.51
9774;BME280;4926;42.670;23.316;2023-04-01T08:32:25;93218.75;;;15.45;59.78
9774;BME280;4926;42.670;23.316;2023-04-01T08:35:00;93191.34;;;15.36;59.71
9774;BME280;4926;42.670;23.316;2023-04-01T08:37:32;93174.41;;;15.67;59.58
9774;BME280;4926;42.670;23.316;2023-04-01T08:43:10;93160.91;;;16.39;56.85
9774;BME280;4926;42.670;23.316;2023-04-01T08:49:03;93136.53;;;17.45;53.49
9774;BME280;4926;42.670;23.316;2023-04-01T08:51:58;93133.78;;;17.68;52.51
9774;BME280;4926;42.670;23.316;2023-04-01T08:54:42;93109.91;;;18.29;50.82
9774;BME280;4926;42.670;23.316;2023-04-01T08:57:17;93116.25;;;18.87;49.57
9774;BME280;4926;42.670;23.316;2023-04-01T08:59:58;93095.25;;;19.14;48.54
9774;BME280;4926;42.670;23.316;2023-04-01T09:02:51;93109.09;;;19.13;48.14
9774;BME280;4926;42.670;23.316;2023-04-01T09:05:36;93110.81;;;18.80;48.37
9774;BME280;4926;42.670;23.316;2023-04-01T09:08:19;93099.91;;;18.66;47.88
9774;BME280;4926;42.670;23.316;2023-04-01T09:11:12;93097.59;;;18.72;47.57
9774;BME280;4926;42.670;23.316;2023-04-01T09:14:01;93093.53;;;18.88;46.45
9774;BME280;4926;42.670;23.316;2023-04-01T09:16:56;93055.59;;;18.67;45.70
9774;BME280;4926;42.670;23.316;2023-04-01T09:19:35;93078.63;;;18.58;46.03
9774;BME280;4926;42.670;23.316;2023-04-01T09:22:22;93075.66;;;18.70;45.46
9774;BME280;4926;42.670;23.316;2023-04-01T09:25:22;93066.28;;;18.53;45.58
9774;BME280;4926;42.670;23.316;2023-04-01T09:28:00;93040.44;;;18.09;46.18
9774;BME280;4926;42.670;23.316;2023-04-01T09:30:43;93048.56;;;18.12;46.33
9774;BME280;4926;42.670;23.316;2023-04-01T09:36:32;93048.72;;;18.30;46.18
9774;BME280;4926;42.670;23.316;2023-04-01T09:42:21;93041.31;;;18.23;46.01
9774;BME280;4926;42.670;23.316;2023-04-01T09:44:57;93020.47;;;18.13;46.42
9774;BME280;4926;42.670;23.316;2023-04-01T09:47:40;92993.66;;;18.27;45.98
9774;BME280;4926;42.670;23.316;2023-04-01T09:50:33;93009.09;;;18.77;44.73
9774;BME280;4926;42.670;23.316;2023-04-01T09:53:19;92989.13;;;19.54;43.03
9774;BME280;4926;42.670;23.316;2023-04-01T09:56:22;92999.97;;;19.68;42.78
9774;BME280;4926;42.670;23.316;2023-04-01T10:14:41;92969.94;;;20.05;42.12
9774;BME280;4926;42.670;23.316;2023-04-01T10:17:30;92943.63;;;19.70;42.79
9774;BME280;4926;42.670;23.316;2023-04-01T10:20:37;92949.06;;;19.87;42.67
9774;BME280;4926;42.670;23.316;2023-04-01T10:23:28;92953.69;;;19.80;42.52
9774;BME280;4926;42.670;23.316;2023-04-01T10:26:24;92939.50;;;20.25;41.84
9774;BME280;4926;42.670;23.316;2023-04-01T10:29:19;92934.84;;;20.05;41.75
9774;BME280;4926;42.670;23.316;2023-04-01T10:38:19;92937.25;;;19.13;42.64
9774;BME280;4926;42.670;23.316;2023-04-01T10:41:21;92923.88;;;19.38;42.78
9774;BME280;4926;42.670;23.316;2023-04-01T10:47:43;92937.25;;;19.10;44.01
9774;BME280;4926;42.670;23.316;2023-04-01T10:50:29;92925.16;;;18.82;44.38
9774;BME280;4926;42.670;23.316;2023-04-01T10:53:30;92924.47;;;18.38;45.89
9774;BME280;4926;42.670;23.316;2023-04-01T10:56:34;92933.31;;;17.92;47.22
9774;BME280;4926;42.670;23.316;2023-04-01T10:59:36;92930.09;;;17.72;47.46
9774;BME280;4926;42.670;23.316;2023-04-01T11:12:01;92945.47;;;17.75;48.14
9774;BME280;4926;42.670;23.316;2023-04-01T11:26:50;92937.38;;;18.15;43.25
9774;BME280;4926;42.670;23.316;2023-04-01T11:29:36;92921.59;;;18.14;43.03
9774;BME280;4926;42.670;23.316;2023-04-01T11:32:23;92979.09;;;17.92;44.45
9774;BME280;4926;42.670;23.316;2023-04-01T11:35:00;92981.53;;;17.67;48.18
9774;BME280;4926;42.670;23.316;2023-04-01T11:37:38;93003.72;;;17.57;48.34
9774;BME280;4926;42.670;23.316;2023-04-01T11:40:17;93026.97;;;17.42;48.14
9774;BME280;4926;42.670;23.316;2023-04-01T11:42:56;93067.66;;;17.11;51.65
9774;BME280;4926;42.670;23.316;2023-04-01T11:45:36;93118.44;;;16.67;55.23
9774;BME280;4926;42.670;23.316;2023-04-01T11:48:34;93156.97;;;16.33;58.73
9774;BME280;4926;42.670;23.316;2023-04-01T11:51:15;93225.91;;;15.72;65.98
9774;BME280;4926;42.670;23.316;2023-04-01T11:53:54;93261.97;;;14.66;77.84
9774;BME280;4926;42.670;23.316;2023-04-01T11:56:39;93276.66;;;14.16;88.12
9774;BME280;4926;42.670;23.316;2023-04-01T11:59:46;93284.09;;;13.83;95.00
9774;BME280;4926;42.670;23.316;2023-04-01T12:02:25;93291.13;;;13.64;96.06
9774;BME280;4926;42.670;23.316;2023-04-01T12:05:03;93308.19;;;13.47;100.00
9774;BME280;4926;42.670;23.316;2023-04-01T12:07:51;93276.34;;;13.18;100.00
9774;BME280;4926;42.670;23.316;2023-04-01T12:10:24;93272.16;;;12.96;100.00
9774;BME280;4926;42.670;23.316;2023-04-01T12:13:01;93263.50;;;12.87;100.00
9774;BME280;4926;42.670;23.316;2023-04-01T12:15:37;93253.56;;;12.88;100.00
9774;BME280;4926;42.670;23.316;2023-04-01T12:18:17;93249.28;;;13.19;100.00
9774;BME280;4926;42.670;23.316;2023-04-01T12:20:50;93242.91;;;13.60;100.00
9774;BME280;4926;42.670;23.316;2023-04-01T12:23:36;93242.25;;;14.03;100.00
9774;BME280;4926;42.670;23.316;2023-04-01T12:26:39;93236.19;;;14.45;100.00
9774;BME280;4926;42.670;23.316;2023-04-01T12:32:12;93251.75;;;14.55;98.44
9774;BME280;4926;42.670;23.316;2023-04-01T12:37:50;93253.44;;;14.32;100.00
9774;BME280;4926;42.670;23.316;2023-04-01T12:40:30;93247.56;;;14.15;100.00
9774;BME280;4926;42.670;23.316;2023-04-01T12:43:10;93252.63;;;14.04;100.00
9774;BME280;4926;42.670;23.316;2023-04-01T12:45:48;93251.63;;;13.33;100.00
9774;BME280;4926;42.670;23.316;2023-04-01T12:48:36;93244.13;;;12.90;100.00
9774;BME280;4926;42.670;23.316;2023-04-01T12:51:29;93254.47;;;12.92;100.00
9774;BME280;4926;42.670;23.316;2023-04-01T12:57:20;93245.84;;;13.19;100.00
9774;BME280;4926;42.670;23.316;2023-04-01T13:00:08;93238.69;;;13.23;100.00
9774;BME280;4926;42.670;23.316;2023-04-01T13:02:52;93231.59;;;13.03;100.00
9774;BME280;4926;42.670;23.316;2023-04-01T13:05:50;93220.00;;;13.11;100.00
9774;BME280;4926;42.670;23.316;2023-04-01T13:08:29;93210.84;;;12.88;100.00
9774;BME280;4926;42.670;23.316;2023-04-01T13:11:18;93198.81;;;13.42;100.00
9774;BME280;4926;42.670;23.316;2023-04-01T13:14:04;93178.91;;;13.79;100.00
9774;BME280;4926;42.670;23.316;2023-04-01T13:16:39;93166.75;;;14.52;100.00
9774;BME280;4926;42.670;23.316;2023-04-01T13:19:12;93158.63;;;14.96;100.00
9774;BME280;4926;42.670;23.316;2023-04-01T13:21:51;93165.28;;;14.86;100.00
9774;BME280;4926;42.670;23.316;2023-04-01T13:24:38;93180.59;;;15.86;100.00
9774;BME280;4926;42.670;23.316;2023-04-01T13:27:11;93171.22;;;16.56;96.21
9774;BME280;4926;42.670;23.316;2023-04-01T13:29:43;93165.78;;;17.73;88.37
9774;BME280;4926;42.670;23.316;2023-04-01T13:32:25;93151.63;;;17.79;81.08
9774;BME280;4926;42.670;23.316;2023-04-01T13:35:05;93145.41;;;17.46;80.52
9774;BME280;4926;42.670;23.316;2023-04-01T13:37:49;93124.13;;;17.37;77.82
9774;BME280;4926;42.670;23.316;2023-04-01T13:40:45;93127.63;;;17.67;78.86
9774;BME280;4926;42.670;23.316;2023-04-01T13:43:19;93121.22;;;17.49;78.11
9774;BME280;4926;42.670;23.316;2023-04-01T13:46:22;93119.34;;;16.52;79.29
9774;BME280;4926;42.670;23.316;2023-04-01T13:49:06;93115.47;;;16.99;80.94
9774;BME280;4926;42.670;23.316;2023-04-01T13:51:57;93102.84;;;17.84;74.01
9774;BME280;4926;42.670;23.316;2023-04-01T13:54:52;93087.97;;;17.94;72.38
9774;BME280;4926;42.670;23.316;2023-04-01T13:57:48;93086.88;;;18.39;71.79
9774;BME280;4926;42.670;23.316;2023-04-01T14:00:28;93073.31;;;18.68;67.71
9774;BME280;4926;42.670;23.316;2023-04-01T14:06:16;93049.91;;;18.79;62.68
9774;BME280;4926;42.670;23.316;2023-04-01T14:09:08;93040.78;;;19.59;61.18
9774;BME280;4926;42.670;23.316;2023-04-01T14:11:46;93000.09;;;20.38;55.37
9774;BME280;4926;42.670;23.316;2023-04-01T14:14:23;92992.78;;;20.39;52.53
9774;BME280;4926;42.670;23.316;2023-04-01T14:17:07;92972.25;;;20.06;50.11
9774;BME280;4926;42.670;23.316;2023-04-01T14:19:51;92981.09;;;19.78;50.70
9774;BME280;4926;42.670;23.316;2023-04-01T14:22:36;92960.94;;;19.55;50.29
9774;BME280;4926;42.670;23.316;2023-04-01T14:25:28;92958.13;;;19.27;48.50
9774;BME280;4926;42.670;23.316;2023-04-01T14:28:10;92971.22;;;19.28;50.18
9774;BME280;4926;42.670;23.316;2023-04-01T14:30:45;92956.44;;;18.98;49.02
9774;BME280;4926;42.670;23.316;2023-04-01T14:33:26;92941.28;;;18.25;48.55
9774;BME280;4926;42.670;23.316;2023-04-01T14:36:18;92944.56;;;18.44;49.15
9774;BME280;4926;42.670;23.316;2023-04-01T14:39:08;92934.16;;;19.15;48.34
9774;BME280;4926;42.670;23.316;2023-04-01T14:41:46;92939.41;;;19.76;47.72
9774;BME280;4926;42.670;23.316;2023-04-01T14:44:35;92931.75;;;20.06;45.60
9774;BME280;4926;42.670;23.316;2023-04-01T14:47:34;92919.41;;;20.51;44.34
9774;BME280;4926;42.670;23.316;2023-04-01T14:50:09;92920.97;;;20.45;44.90
9774;BME280;4926;42.670;23.316;2023-04-01T14:52:40;92994.91;;;19.63;54.30
9774;BME280;4926;42.670;23.316;2023-04-01T14:55:23;93015.81;;;18.10;62.29
9774;BME280;4926;42.670;23.316;2023-04-01T14:58:04;93023.50;;;18.08;63.76
9774;BME280;4926;42.670;23.316;2023-04-01T15:00:55;93032.63;;;17.97;65.06
9774;BME280;4926;42.670;23.316;2023-04-01T15:03:28;93031.72;;;18.22;65.15
9774;BME280;4926;42.670;23.316;2023-04-01T15:06:10;93054.84;;;17.90;65.20
9774;BME280;4926;42.670;23.316;2023-04-01T15:08:44;93056.31;;;17.84;65.78
9774;BME280;4926;42.670;23.316;2023-04-01T15:11:36;93060.97;;;17.28;68.48
9774;BME280;4926;42.670;23.316;2023-04-01T15:14:26;93047.84;;;17.23;64.66
9774;BME280;4926;42.670;23.316;2023-04-01T15:17:05;93066.50;;;16.83;70.05